sensor_id;sensor_type;location;lat;lon;timestamp;temperature;humidity
64396;DHT22;50717;53.360;6.290;2023-04-06T00:04:00;3.10;99.90
64396;DHT22;50717;53.360;6.290;2023-04-06T00:06:26;2.80;99.90
64396;DHT22;50717;53.360;6.290;2023-04-06T00:08:52;2.90;99.90
64396;DHT22;50717;53.360;6.290;2023-04-06T00:11:18;2.80;99.90
64396;DHT22;50717;53.360;6.290;2023-04-06T00:13:44;2.90;99.90
64396;DHT22;50717;53.360;6.290;2023-04-06T00:16:10;2.90;99.90
64396;DHT22;50717;53.360;6.290;2023-04-06T00:21:02;2.70;99.90
64396;DHT22;50717;53.360;6.290;2023-04-06T00:33:18;2.80;99.90
64396;DHT22;50717;53.360;6.290;2023-04-06T00:35:45;2.90;99.90
64396;DHT22;50717;53.360;6.290;2023-04-06T00:45:38;2.40;99.90
64396;DHT22;50717;53.360;6.290;2023-04-06T00:48:04;2.70;99.90
64396;DHT22;50717;53.360;6.290;2023-04-06T00:50:30;2.20;99.90
64396;DHT22;50717;53.360;6.290;2023-04-06T00:55:22;2.60;99.90
64396;DHT22;50717;53.360;6.290;2023-04-06T01:00:16;2.40;99.90
64396;DHT22;50717;53.360;6.290;2023-04-06T01:02:42;2.30;99.90
64396;DHT22;50717;53.360;6.290;2023-04-06T01:07:34;2.20;99.90
64396;DHT22;50717;53.360;6.290;2023-04-06T01:17:18;2.20;99.90
64396;DHT22;50717;53.360;6.290;2023-04-06T01:19:43;1.90;99.90
64396;DHT22;50717;53.360;6.290;2023-04-06T01:22:17;1.90;99.90
64396;DHT22;50717;53.360;6.290;2023-04-06T01:32:02;2.20;99.90
64396;DHT22;50717;53.360;6.290;2023-04-06T01:36:54;2.20;99.90
64396;DHT22;50717;53.360;6.290;2023-04-06T01:39:20;2.10;99.90
64396;DHT22;50717;53.360;6.290;2023-04-06T01:41:46;2.20;99.90
64396;DHT22;50717;53.360;6.290;2023-04-06T01:44:16;2.00;99.90
64396;DHT22;50717;53.360;6.290;2023-04-06T01:46:42;1.90;99.90
64396;DHT22;50717;53.360;6.290;2023-04-06T01:54:00;1.90;99.90
64396;DHT22;50717;53.360;6.290;2023-04-06T02:06:10;1.70;99.90
64396;DHT22;50717;53.360;6.290;2023-04-06T02:33:00;1.50;99.90
64396;DHT22;50717;53.360;6.290;2023-04-06T02:42:44;1.40;99.90
64396;DHT22;50717;53.360;6.290;2023-04-06T02:50:02;1.20;99.90
64396;DHT22;50717;53.360;6.290;2023-04-06T02:54:54;1.40;99.90
64396;DHT22;50717;53.360;6.290;2023-04-06T02:59:45;1.20;99.90
64396;DHT22;50717;53.360;6.290;2023-04-06T03:02:11;1.20;99.90
64396;DHT22;50717;53.360;6.290;2023-04-06T03:07:03;1.10;99.90
64396;DHT22;50717;53.360;6.290;2023-04-06T03:14:21;1.10;99.90
64396;DHT22;50717;53.360;6.290;2023-04-06T03:16:47;1.00;99.90
64396;DHT22;50717;53.360;6.290;2023-04-06T03:26:33;1.10;99.90
64396;DHT22;50717;53.360;6.290;2023-04-06T03:31:26;1.20;99.90
64396;DHT22;50717;53.360;6.290;2023-04-06T03:41:10;1.00;99.90
64396;DHT22;50717;53.360;6.290;2023-04-06T03:50:55;1.20;99.90
64396;DHT22;50717;53.360;6.290;2023-04-06T03:53:20;1.00;99.90
64396;DHT22;50717;53.360;6.290;2023-04-06T03:58:12;0.90;99.90
64396;DHT22;50717;53.360;6.290;2023-04-06T04:00:38;0.90;99.90
64396;DHT22;50717;53.360;6.290;2023-04-06T04:15:14;0.90;99.90
64396;DHT22;50717;53.360;6.290;2023-04-06T04:24:58;0.80;99.90
64396;DHT22;50717;53.360;6.290;2023-04-06T04:27:24;0.60;99.90
64396;DHT22;50717;53.360;6.290;2023-04-06T04:32:16;0.70;99.90
64396;DHT22;50717;53.360;6.290;2023-04-06T04:44:26;0.70;99.90
64396;DHT22;50717;53.360;6.290;2023-04-06T04:56:36;0.50;99.90
64396;DHT22;50717;53.360;6.290;2023-04-06T05:08:46;0.50;99.90
64396;DHT22;50717;53.360;6.290;2023-04-06T05:16:04;0.70;99.90
64396;DHT22;50717;53.360;6.290;2023-04-06T05:18:30;0.60;99.90
64396;DHT22;50717;53.360;6.290;2023-04-06T05:25:48;0.70;99.90
64396;DHT22;50717;53.360;6.290;2023-04-06T05:28:14;0.70;99.90
64396;DHT22;50717;53.360;6.290;2023-04-06T05:30:42;0.60;99.90
64396;DHT22;50717;53.360;6.290;2023-04-06T05:38:01;0.60;99.90
64396;DHT22;50717;53.360;6.290;2023-04-06T05:47:46;0.70;99.90
64396;DHT22;50717;53.360;6.290;2023-04-06T06:09:49;1.50;99.90
64396;DHT22;50717;53.360;6.290;2023-04-06T06:14:41;1.50;99.90
64396;DHT22;50717;53.360;6.290;2023-04-06T06:26:54;1.80;99.90
64396;DHT22;50717;53.360;6.290;2023-04-06T06:31:46;1.90;99.90
64396;DHT22;50717;53.360;6.290;2023-04-06T06:34:11;2.10;99.90
64396;DHT22;50717;53.360;6.290;2023-04-06T06:36:38;2.40;99.90
64396;DHT22;50717;53.360;6.290;2023-04-06T06:39:04;2.30;99.90
64396;DHT22;50717;53.360;6.290;2023-04-06T06:43:55;2.50;99.90
64396;DHT22;50717;53.360;6.290;2023-04-06T06:46:21;2.80;99.90
64396;DHT22;50717;53.360;6.290;2023-04-06T06:53:39;2.90;99.90
64396;DHT22;50717;53.360;6.290;2023-04-06T06:56:05;2.80;99.90
64396;DHT22;50717;53.360;6.290;2023-04-06T06:58:31;3.20;99.90
64396;DHT22;50717;53.360;6.290;2023-04-06T07:00:58;3.00;99.90
64396;DHT22;50717;53.360;6.290;2023-04-06T07:03:24;3.10;99.90
64396;DHT22;50717;53.360;6.290;2023-04-06T07:05:50;3.20;99.90
64396;DHT22;50717;53.360;6.290;2023-04-06T07:08:22;3.40;99.90
64396;DHT22;50717;53.360;6.290;2023-04-06T07:10:49;4.00;99.90
64396;DHT22;50717;53.360;6.290;2023-04-06T07:13:16;3.50;99.90
64396;DHT22;50717;53.360;6.290;2023-04-06T07:15:47;3.60;99.90
64396;DHT22;50717;53.360;6.290;2023-04-06T07:18:13;3.80;99.90
64396;DHT22;50717;53.360;6.290;2023-04-06T07:20:39;4.20;99.90
64396;DHT22;50717;53.360;6.290;2023-04-06T07:23:05;4.10;99.90
64396;DHT22;50717;53.360;6.290;2023-04-06T07:25:30;4.30;99.90
64396;DHT22;50717;53.360;6.290;2023-04-06T07:30:23;4.80;99.90
64396;DHT22;50717;53.360;6.290;2023-04-06T07:32:50;4.90;99.90
64396;DHT22;50717;53.360;6.290;2023-04-06T07:35:16;5.00;99.90
64396;DHT22;50717;53.360;6.290;2023-04-06T07:37:41;5.20;99.90
64396;DHT22;50717;53.360;6.290;2023-04-06T07:40:08;5.00;99.90
64396;DHT22;50717;53.360;6.290;2023-04-06T07:42:34;5.00;99.90
64396;DHT22;50717;53.360;6.290;2023-04-06T07:44:59;7.30;99.90
64396;DHT22;50717;53.360;6.290;2023-04-06T07:47:25;5.80;99.90
64396;DHT22;50717;53.360;6.290;2023-04-06T07:49:51;5.60;99.90
64396;DHT22;50717;53.360;6.290;2023-04-06T07:52:17;5.90;99.90
64396;DHT22;50717;53.360;6.290;2023-04-06T07:54:42;5.90;99.90
64396;DHT22;50717;53.360;6.290;2023-04-06T07:57:08;6.30;99.90
64396;DHT22;50717;53.360;6.290;2023-04-06T07:59:34;6.30;99.90
64396;DHT22;50717;53.360;6.290;2023-04-06T08:02:00;6.30;99.90
64396;DHT22;50717;53.360;6.290;2023-04-06T08:04:26;6.50;99.90
64396;DHT22;50717;53.360;6.290;2023-04-06T08:06:51;6.80;99.90
64396;DHT22;50717;53.360;6.290;2023-04-06T08:09:17;6.70;99.90
64396;DHT22;50717;53.360;6.290;2023-04-06T08:11:43;7.20;99.90
64396;DHT22;50717;53.360;6.290;2023-04-06T08:14:10;7.40;99.90
64396;DHT22;50717;53.360;6.290;2023-04-06T08:16:35;7.70;99.90
64396;DHT22;50717;53.360;6.290;2023-04-06T08:19:01;7.70;99.90
64396;DHT22;50717;53.360;6.290;2023-04-06T08:21:27;7.70;99.90
64396;DHT22;50717;53.360;6.290;2023-04-06T08:23:52;7.60;99.90
64396;DHT22;50717;53.360;6.290;2023-04-06T08:26:18;7.70;99.90
64396;DHT22;50717;53.360;6.290;2023-04-06T08:28:44;7.80;99.90
64396;DHT22;50717;53.360;6.290;2023-04-06T08:31:10;8.20;99.90
64396;DHT22;50717;53.360;6.290;2023-04-06T08:33:35;8.00;99.90
64396;DHT22;50717;53.360;6.290;2023-04-06T08:36:15;8.20;99.90
64396;DHT22;50717;53.360;6.290;2023-04-06T08:38:41;8.70;99.90
64396;DHT22;50717;53.360;6.290;2023-04-06T08:41:12;9.00;99.90
64396;DHT22;50717;53.360;6.290;2023-04-06T08:43:49;9.00;99.90
64396;DHT22;50717;53.360;6.290;2023-04-06T08:46:17;9.00;99.90
64396;DHT22;50717;53.360;6.290;2023-04-06T08:48:43;9.20;99.90
64396;DHT22;50717;53.360;6.290;2023-04-06T08:51:10;9.20;99.90
64396;DHT22;50717;53.360;6.290;2023-04-06T08:53:36;9.40;99.90
64396;DHT22;50717;53.360;6.290;2023-04-06T08:56:02;9.80;99.90
64396;DHT22;50717;53.360;6.290;2023-04-06T08:58:34;10.00;99.90
64396;DHT22;50717;53.360;6.290;2023-04-06T09:01:01;9.80;99.90
64396;DHT22;50717;53.360;6.290;2023-04-06T09:03:29;10.10;99.90
64396;DHT22;50717;53.360;6.290;2023-04-06T09:05:56;10.10;99.90
64396;DHT22;50717;53.360;6.290;2023-04-06T09:08:22;10.30;99.90
64396;DHT22;50717;53.360;6.290;2023-04-06T09:10:48;10.20;99.90
64396;DHT22;50717;53.360;6.290;2023-04-06T09:13:14;10.20;99.90
64396;DHT22;50717;53.360;6.290;2023-04-06T09:15:40;9.90;99.90
64396;DHT22;50717;53.360;6.290;2023-04-06T09:18:06;10.20;99.90
64396;DHT22;50717;53.360;6.290;2023-04-06T09:20:33;9.80;99.90
64396;DHT22;50717;53.360;6.290;2023-04-06T09:22:59;9.90;99.90
64396;DHT22;50717;53.360;6.290;2023-04-06T09:25:25;10.10;99.90
64396;DHT22;50717;53.360;6.290;2023-04-06T09:28:01;9.90;99.90
64396;DHT22;50717;53.360;6.290;2023-04-06T09:30:27;10.40;99.90
64396;DHT22;50717;53.360;6.290;2023-04-06T09:32:55;10.20;99.90
64396;DHT22;50717;53.360;6.290;2023-04-06T09:35:22;9.90;99.90
64396;DHT22;50717;53.360;6.290;2023-04-06T09:37:49;10.00;99.90
64396;DHT22;50717;53.360;6.290;2023-04-06T09:40:16;10.20;99.90
64396;DHT22;50717;53.360;6.290;2023-04-06T09:42:49;10.10;99.90
64396;DHT22;50717;53.360;6.290;2023-04-06T09:45:17;10.30;99.90
64396;DHT22;50717;53.360;6.290;2023-04-06T09:47:44;10.50;99.90
64396;DHT22;50717;53.360;6.290;2023-04-06T09:50:11;10.50;99.90
64396;DHT22;50717;53.360;6.290;2023-04-06T09:52:49;10.30;99.90
64396;DHT22;50717;53.360;6.290;2023-04-06T09:55:33;10.70;99.90
64396;DHT22;50717;53.360;6.290;2023-04-06T09:58:09;10.70;99.90
64396;DHT22;50717;53.360;6.290;2023-04-06T10:00:44;10.40;99.90
64396;DHT22;50717;53.360;6.290;2023-04-06T10:03:46;10.60;99.90
64396;DHT22;50717;53.360;6.290;2023-04-06T10:06:20;10.70;99.90
64396;DHT22;50717;53.360;6.290;2023-04-06T10:08:48;10.80;99.90
64396;DHT22;50717;53.360;6.290;2023-04-06T10:11:15;10.60;99.90
64396;DHT22;50717;53.360;6.290;2023-04-06T10:13:41;10.70;99.90
64396;DHT22;50717;53.360;6.290;2023-04-06T10:16:08;10.70;99.90
64396;DHT22;50717;53.360;6.290;2023-04-06T10:18:34;11.00;99.90
64396;DHT22;50717;53.360;6.290;2023-04-06T10:21:08;10.90;99.90
64396;DHT22;50717;53.360;6.290;2023-04-06T10:23:59;11.20;99.90
64396;DHT22;50717;53.360;6.290;2023-04-06T10:26:25;10.80;99.90
64396;DHT22;50717;53.360;6.290;2023-04-06T10:28:51;11.40;99.90
64396;DHT22;50717;53.360;6.290;2023-04-06T10:31:25;11.10;99.90
64396;DHT22;50717;53.360;6.290;2023-04-06T10:33:59;11.20;99.90
64396;DHT22;50717;53.360;6.290;2023-04-06T10:36:27;11.00;99.90
64396;DHT22;50717;53.360;6.290;2023-04-06T10:38:58;11.40;99.90
64396;DHT22;50717;53.360;6.290;2023-04-06T10:41:40;11.50;99.90
64396;DHT22;50717;53.360;6.290;2023-04-06T10:44:06;11.60;99.90
64396;DHT22;50717;53.360;6.290;2023-04-06T10:46:33;12.10;99.90
64396;DHT22;50717;53.360;6.290;2023-04-06T10:49:10;12.10;99.90
64396;DHT22;50717;53.360;6.290;2023-04-06T10:51:38;12.20;99.90
64396;DHT22;50717;53.360;6.290;2023-04-06T10:54:06;12.50;99.90
64396;DHT22;50717;53.360;6.290;2023-04-06T10:56:32;12.40;99.90
64396;DHT22;50717;53.360;6.290;2023-04-06T10:59:02;12.20;99.90
64396;DHT22;50717;53.360;6.290;2023-04-06T11:01:28;12.30;99.90
64396;DHT22;50717;53.360;6.290;2023-04-06T11:03:56;12.50;99.90
64396;DHT22;50717;53.360;6.290;2023-04-06T11:06:25;12.50;99.90
64396;DHT22;50717;53.360;6.290;2023-04-06T11:08:53;12.80;99.90
64396;DHT22;50717;53.360;6.290;2023-04-06T11:11:20;12.50;99.90
64396;DHT22;50717;53.360;6.290;2023-04-06T11:13:50;12.70;99.90
64396;DHT22;50717;53.360;6.290;2023-04-06T11:16:18;12.60;99.90
64396;DHT22;50717;53.360;6.290;2023-04-06T11:18:48;12.90;99.90
64396;DHT22;50717;53.360;6.290;2023-04-06T11:21:14;13.10;99.90
64396;DHT22;50717;53.360;6.290;2023-04-06T11:23:40;13.00;99.90
64396;DHT22;50717;53.360;6.290;2023-04-06T11:26:13;13.20;99.90
64396;DHT22;50717;53.360;6.290;2023-04-06T11:28:41;13.30;99.90
64396;DHT22;50717;53.360;6.290;2023-04-06T11:31:09;13.30;99.90
64396;DHT22;50717;53.360;6.290;2023-04-06T11:33:38;13.60;99.90
64396;DHT22;50717;53.360;6.290;2023-04-06T11:36:05;13.10;99.90
64396;DHT22;50717;53.360;6.290;2023-04-06T11:38:31;13.10;99.90
64396;DHT22;50717;53.360;6.290;2023-04-06T11:40:57;13.40;99.90
64396;DHT22;50717;53.360;6.290;2023-04-06T11:43:31;13.50;99.90
64396;DHT22;50717;53.360;6.290;2023-04-06T11:46:03;13.40;99.90
64396;DHT22;50717;53.360;6.290;2023-04-06T11:48:30;13.30;99.90
64396;DHT22;50717;53.360;6.290;2023-04-06T11:50:59;13.60;99.90
64396;DHT22;50717;53.360;6.290;2023-04-06T11:53:27;13.30;99.90
64396;DHT22;50717;53.360;6.290;2023-04-06T11:55:53;13.60;99.90
64396;DHT22;50717;53.360;6.290;2023-04-06T11:58:19;13.10;99.90
64396;DHT22;50717;53.360;6.290;2023-04-06T12:00:45;12.90;99.90
64396;DHT22;50717;53.360;6.290;2023-04-06T12:03:11;12.80;99.90
64396;DHT22;50717;53.360;6.290;2023-04-06T12:05:37;12.80;99.90
64396;DHT22;50717;53.360;6.290;2023-04-06T12:08:03;12.90;99.90
64396;DHT22;50717;53.360;6.290;2023-04-06T12:10:29;12.90;99.90
64396;DHT22;50717;53.360;6.290;2023-04-06T12:12:55;12.70;99.90
64396;DHT22;50717;53.360;6.290;2023-04-06T12:15:21;12.70;99.90
64396;DHT22;50717;53.360;6.290;2023-04-06T12:17:47;13.00;99.90
64396;DHT22;50717;53.360;6.290;2023-04-06T12:20:13;13.00;99.90
64396;DHT22;50717;53.360;6.290;2023-04-06T12:22:39;12.60;99.90
64396;DHT22;50717;53.360;6.290;2023-04-06T12:25:05;12.70;99.90
64396;DHT22;50717;53.360;6.290;2023-04-06T12:27:32;12.70;99.90
64396;DHT22;50717;53.360;6.290;2023-04-06T12:29:58;12.40;99.90
64396;DHT22;50717;53.360;6.290;2023-04-06T12:32:24;12.50;99.90
64396;DHT22;50717;53.360;6.290;2023-04-06T12:34:52;12.80;99.90
64396;DHT22;50717;53.360;6.290;2023-04-06T12:37:18;12.70;99.90
64396;DHT22;50717;53.360;6.290;2023-04-06T12:39:43;12.40;99.90
64396;DHT22;50717;53.360;6.290;2023-04-06T12:42:10;12.50;99.90
64396;DHT22;50717;53.360;6.290;2023-04-06T12:44:38;12.40;99.90
64396;DHT22;50717;53.360;6.290;2023-04-06T12:47:03;12.50;99.90
64396;DHT22;50717;53.360;6.290;2023-04-06T12:49:30;12.70;99.90
64396;DHT22;50717;53.360;6.290;2023-04-06T12:51:57;12.80;99.90
64396;DHT22;50717;53.360;6.290;2023-04-06T12:54:22;12.70;99.90
64396;DHT22;50717;53.360;6.290;2023-04-06T12:56:48;12.50;99.90
64396;DHT22;50717;53.360;6.290;2023-04-06T12:59:14;13.10;99.90
64396;DHT22;50717;53.360;6.290;2023-04-06T13:01:40;12.90;99.90
64396;DHT22;50717;53.360;6.290;2023-04-06T13:04:05;13.10;99.90
64396;DHT22;50717;53.360;6.290;2023-04-06T13:06:31;12.90;99.90
64396;DHT22;50717;53.360;6.290;2023-04-06T13:08:57;13.00;99.90
64396;DHT22;50717;53.360;6.290;2023-04-06T13:11:22;12.50;99.90
64396;DHT22;50717;53.360;6.290;2023-04-06T13:13:49;12.90;99.90
64396;DHT22;50717;53.360;6.290;2023-04-06T13:16:15;12.70;99.90
64396;DHT22;50717;53.360;6.290;2023-04-06T13:18:41;13.00;99.90
64396;DHT22;50717;53.360;6.290;2023-04-06T13:21:07;12.90;99.90
64396;DHT22;50717;53.360;6.290;2023-04-06T13:23:33;12.70;99.90
64396;DHT22;50717;53.360;6.290;2023-04-06T13:26:06;12.60;99.90
64396;DHT22;50717;53.360;6.290;2023-04-06T13:28:35;12.70;99.90
64396;DHT22;50717;53.360;6.290;2023-04-06T13:31:02;13.20;99.90
64396;DHT22;50717;53.360;6.290;2023-04-06T13:33:29;13.00;99.90
64396;DHT22;50717;53.360;6.290;2023-04-06T13:35:55;13.10;99.90
64396;DHT22;50717;53.360;6.290;2023-04-06T13:38:21;13.30;99.90
64396;DHT22;50717;53.360;6.290;2023-04-06T13:40:49;13.40;99.90
64396;DHT22;50717;53.360;6.290;2023-04-06T13:43:15;13.40;99.90
64396;DHT22;50717;53.360;6.290;2023-04-06T13:45:41;13.50;99.90
64396;DHT22;50717;53.360;6.290;2023-04-06T13:48:06;13.90;99.90
64396;DHT22;50717;53.360;6.290;2023-04-06T13:50:33;13.80;99.90
64396;DHT22;50717;53.360;6.290;2023-04-06T13:52:59;14.30;99.90
64396;DHT22;50717;53.360;6.290;2023-04-06T13:55:25;14.30;99.90
64396;DHT22;50717;53.360;6.290;2023-04-06T13:57:51;13.90;99.90
64396;DHT22;50717;53.360;6.290;2023-04-06T14:00:17;13.60;99.90
64396;DHT22;50717;53.360;6.290;2023-04-06T14:02:43;13.90;99.90
64396;DHT22;50717;53.360;6.290;2023-04-06T14:05:09;13.00;99.90
64396;DHT22;50717;53.360;6.290;2023-04-06T14:07:35;13.50;99.90
64396;DHT22;50717;53.360;6.290;2023-04-06T14:10:01;13.10;99.90
64396;DHT22;50717;53.360;6.290;2023-04-06T14:12:27;12.70;99.90
64396;DHT22;50717;53.360;6.290;2023-04-06T14:14:52;12.90;99.90
64396;DHT22;50717;53.360;6.290;2023-04-06T14:17:18;12.70;99.90
64396;DHT22;50717;53.360;6.290;2023-04-06T14:19:43;13.00;99.90
64396;DHT22;50717;53.360;6.290;2023-04-06T14:22:09;13.10;99.90
64396;DHT22;50717;53.360;6.290;2023-04-06T14:24:36;12.80;99.90
64396;DHT22;50717;53.360;6.290;2023-04-06T14:27:02;12.80;99.90
64396;DHT22;50717;53.360;6.290;2023-04-06T14:29:28;12.80;99.90
64396;DHT22;50717;53.360;6.290;2023-04-06T14:31:54;12.30;99.90
64396;DHT22;50717;53.360;6.290;2023-04-06T14:34:28;12.50;99.90
64396;DHT22;50717;53.360;6.290;2023-04-06T14:36:54;12.30;99.90
64396;DHT22;50717;53.360;6.290;2023-04-06T14:39:20;12.20;99.90
64396;DHT22;50717;53.360;6.290;2023-04-06T14:41:46;12.40;99.90
64396;DHT22;50717;53.360;6.290;2023-04-06T14:44:16;10.60;99.90
64396;DHT22;50717;53.360;6.290;2023-04-06T14:46:42;11.80;99.90
64396;DHT22;50717;53.360;6.290;2023-04-06T14:49:08;12.20;99.90
64396;DHT22;50717;53.360;6.290;2023-04-06T14:51:36;11.90;99.90
64396;DHT22;50717;53.360;6.290;2023-04-06T14:54:02;11.50;99.90
64396;DHT22;50717;53.360;6.290;2023-04-06T14:56:28;12.00;99.90
64396;DHT22;50717;53.360;6.290;2023-04-06T14:58:58;11.70;99.90
64396;DHT22;50717;53.360;6.290;2023-04-06T15:01:24;11.40;99.90
64396;DHT22;50717;53.360;6.290;2023-04-06T15:03:50;11.70;99.90
64396;DHT22;50717;53.360;6.290;2023-04-06T15:06:16;11.40;99.90
64396;DHT22;50717;53.360;6.290;2023-04-06T15:08:43;11.10;99.90
64396;DHT22;50717;53.360;6.290;2023-04-06T15:11:10;11.20;99.90
64396;DHT22;50717;53.360;6.290;2023-04-06T15:13:37;10.90;99.90
64396;DHT22;50717;53.360;6.290;2023-04-06T15:16:04;10.80;99.90
64396;DHT22;50717;53.360;6.290;2023-04-06T15:18:29;10.60;99.90
64396;DHT22;50717;53.360;6.290;2023-04-06T15:20:55;10.90;99.90
64396;DHT22;50717;53.360;6.290;2023-04-06T15:23:21;10.30;99.90
64396;DHT22;50717;53.360;6.290;2023-04-06T15:25:47;10.80;99.90
64396;DHT22;50717;53.360;6.290;2023-04-06T15:28:12;10.30;99.90
64396;DHT22;50717;53.360;6.290;2023-04-06T15:30:38;10.10;99.90
64396;DHT22;50717;53.360;6.290;2023-04-06T15:33:07;10.10;99.90
64396;DHT22;50717;53.360;6.290;2023-04-06T15:35:33;9.80;99.90
64396;DHT22;50717;53.360;6.290;2023-04-06T15:38:00;10.00;99.90
64396;DHT22;50717;53.360;6.290;2023-04-06T15:40:26;9.70;99.90
64396;DHT22;50717;53.360;6.290;2023-04-06T15:42:52;9.80;99.90
64396;DHT22;50717;53.360;6.290;2023-04-06T15:45:18;9.80;99.90
64396;DHT22;50717;53.360;6.290;2023-04-06T15:47:44;9.80;99.90
64396;DHT22;50717;53.360;6.290;2023-04-06T15:50:11;9.70;99.90
64396;DHT22;50717;53.360;6.290;2023-04-06T15:52:38;9.70;99.90
64396;DHT22;50717;53.360;6.290;2023-04-06T15:55:04;9.60;99.90
64396;DHT22;50717;53.360;6.290;2023-04-06T15:57:30;9.70;99.90
64396;DHT22;50717;53.360;6.290;2023-04-06T15:59:57;9.60;99.90
64396;DHT22;50717;53.360;6.290;2023-04-06T16:02:23;9.80;99.90
64396;DHT22;50717;53.360;6.290;2023-04-06T16:04:53;9.50;99.90
64396;DHT22;50717;53.360;6.290;2023-04-06T16:07:19;9.30;99.90
64396;DHT22;50717;53.360;6.290;2023-04-06T16:09:44;9.70;99.90
64396;DHT22;50717;53.360;6.290;2023-04-06T16:12:10;9.40;99.90
64396;DHT22;50717;53.360;6.290;2023-04-06T16:14:36;9.50;99.90
64396;DHT22;50717;53.360;6.290;2023-04-06T16:17:01;9.50;99.90
64396;DHT22;50717;53.360;6.290;2023-04-06T16:19:27;9.30;99.90
64396;DHT22;50717;53.360;6.290;2023-04-06T16:21:53;9.50;99.90
64396;DHT22;50717;53.360;6.290;2023-04-06T16:24:19;9.30;99.90
64396;DHT22;50717;53.360;6.290;2023-04-06T16:26:46;9.30;99.90
64396;DHT22;50717;53.360;6.290;2023-04-06T16:29:12;9.40;99.90
64396;DHT22;50717;53.360;6.290;2023-04-06T16:31:40;9.20;99.90
64396;DHT22;50717;53.360;6.290;2023-04-06T16:34:08;10.10;99.90
64396;DHT22;50717;53.360;6.290;2023-04-06T16:36:33;9.40;99.90
64396;DHT22;50717;53.360;6.290;2023-04-06T16:39:00;9.10;99.90
64396;DHT22;50717;53.360;6.290;2023-04-06T16:41:27;9.00;99.90
64396;DHT22;50717;53.360;6.290;2023-04-06T16:43:53;9.00;99.90
64396;DHT22;50717;53.360;6.290;2023-04-06T16:46:21;9.00;99.90
64396;DHT22;50717;53.360;6.290;2023-04-06T16:48:53;8.80;99.90
64396;DHT22;50717;53.360;6.290;2023-04-06T16:51:19;8.30;99.90
64396;DHT22;50717;53.360;6.290;2023-04-06T16:53:45;8.90;99.90
64396;DHT22;50717;53.360;6.290;2023-04-06T16:56:12;8.70;99.90
64396;DHT22;50717;53.360;6.290;2023-04-06T16:58:38;8.50;99.90
64396;DHT22;50717;53.360;6.290;2023-04-06T17:01:04;8.80;99.90
64396;DHT22;50717;53.360;6.290;2023-04-06T17:03:32;8.70;99.90
64396;DHT22;50717;53.360;6.290;2023-04-06T17:05:58;8.60;99.90
64396;DHT22;50717;53.360;6.290;2023-04-06T17:08:23;8.40;99.90
64396;DHT22;50717;53.360;6.290;2023-04-06T17:10:49;8.60;99.90
64396;DHT22;50717;53.360;6.290;2023-04-06T17:13:15;8.40;99.90
64396;DHT22;50717;53.360;6.290;2023-04-06T17:15:41;8.20;99.90
64396;DHT22;50717;53.360;6.290;2023-04-06T17:18:08;8.30;99.90
64396;DHT22;50717;53.360;6.290;2023-04-06T17:20:34;8.20;99.90
64396;DHT22;50717;53.360;6.290;2023-04-06T17:23:01;8.20;99.90
64396;DHT22;50717;53.360;6.290;2023-04-06T17:25:27;8.80;99.90
64396;DHT22;50717;53.360;6.290;2023-04-06T17:27:53;8.00;99.90
64396;DHT22;50717;53.360;6.290;2023-04-06T17:30:18;8.10;99.90
64396;DHT22;50717;53.360;6.290;2023-04-06T17:32:44;8.30;99.90
64396;DHT22;50717;53.360;6.290;2023-04-06T17:35:10;7.80;99.90
64396;DHT22;50717;53.360;6.290;2023-04-06T17:37:36;7.80;99.90
64396;DHT22;50717;53.360;6.290;2023-04-06T17:40:03;7.50;99.90
64396;DHT22;50717;53.360;6.290;2023-04-06T17:42:29;7.60;99.90
64396;DHT22;50717;53.360;6.290;2023-04-06T17:44:57;7.50;99.90
64396;DHT22;50717;53.360;6.290;2023-04-06T17:47:22;7.70;99.90
64396;DHT22;50717;53.360;6.290;2023-04-06T17:49:50;7.70;99.90
64396;DHT22;50717;53.360;6.290;2023-04-06T17:52:15;7.50;99.90
64396;DHT22;50717;53.360;6.290;2023-04-06T17:54:41;7.40;99.90
64396;DHT22;50717;53.360;6.290;2023-04-06T17:57:07;7.70;99.90
64396;DHT22;50717;53.360;6.290;2023-04-06T17:59:33;7.40;99.90
64396;DHT22;50717;53.360;6.290;2023-04-06T18:01:59;7.10;99.90
64396;DHT22;50717;53.360;6.290;2023-04-06T18:04:24;7.30;99.90
64396;DHT22;50717;53.360;6.290;2023-04-06T18:06:50;7.60;99.90
64396;DHT22;50717;53.360;6.290;2023-04-06T18:09:16;7.70;99.90
64396;DHT22;50717;53.360;6.290;2023-04-06T18:11:42;7.30;99.90
64396;DHT22;50717;53.360;6.290;2023-04-06T18:14:09;7.90;99.90
64396;DHT22;50717;53.360;6.290;2023-04-06T18:16:37;7.40;99.90
64396;DHT22;50717;53.360;6.290;2023-04-06T18:19:03;8.20;99.90
64396;DHT22;50717;53.360;6.290;2023-04-06T18:21:29;7.60;99.90
64396;DHT22;50717;53.360;6.290;2023-04-06T18:23:56;7.40;99.90
64396;DHT22;50717;53.360;6.290;2023-04-06T18:26:22;7.40;99.90
64396;DHT22;50717;53.360;6.290;2023-04-06T18:28:49;7.50;99.90
64396;DHT22;50717;53.360;6.290;2023-04-06T18:31:15;7.40;99.90
64396;DHT22;50717;53.360;6.290;2023-04-06T18:33:41;7.60;99.90
64396;DHT22;50717;53.360;6.290;2023-04-06T18:36:08;7.50;99.90
64396;DHT22;50717;53.360;6.290;2023-04-06T18:38:36;7.60;99.90
64396;DHT22;50717;53.360;6.290;2023-04-06T18:41:04;7.20;99.90
64396;DHT22;50717;53.360;6.290;2023-04-06T18:43:29;7.60;99.90
64396;DHT22;50717;53.360;6.290;2023-04-06T18:45:55;7.20;99.90
64396;DHT22;50717;53.360;6.290;2023-04-06T18:48:21;7.40;99.90
64396;DHT22;50717;53.360;6.290;2023-04-06T18:50:57;7.40;99.90
64396;DHT22;50717;53.360;6.290;2023-04-06T18:53:26;7.10;99.90
64396;DHT22;50717;53.360;6.290;2023-04-06T18:55:53;7.20;99.90
64396;DHT22;50717;53.360;6.290;2023-04-06T18:58:19;9.30;99.90
64396;DHT22;50717;53.360;6.290;2023-04-06T19:00:44;7.30;99.90
64396;DHT22;50717;53.360;6.290;2023-04-06T19:03:10;7.60;99.90
64396;DHT22;50717;53.360;6.290;2023-04-06T19:05:36;7.30;99.90
64396;DHT22;50717;53.360;6.290;2023-04-06T19:08:02;7.30;99.90
64396;DHT22;50717;53.360;6.290;2023-04-06T19:10:27;7.50;99.90
64396;DHT22;50717;53.360;6.290;2023-04-06T19:12:55;7.60;99.90
64396;DHT22;50717;53.360;6.290;2023-04-06T19:15:21;7.10;99.90
64396;DHT22;50717;53.360;6.290;2023-04-06T19:17:47;7.20;99.90
64396;DHT22;50717;53.360;6.290;2023-04-06T19:20:12;7.30;99.90
64396;DHT22;50717;53.360;6.290;2023-04-06T19:22:38;7.20;99.90
64396;DHT22;50717;53.360;6.290;2023-04-06T19:25:04;7.60;99.90
64396;DHT22;50717;53.360;6.290;2023-04-06T19:27:31;7.40;99.90
64396;DHT22;50717;53.360;6.290;2023-04-06T19:29:56;8.40;99.90
64396;DHT22;50717;53.360;6.290;2023-04-06T19:32:23;7.40;99.90
64396;DHT22;50717;53.360;6.290;2023-04-06T19:34:50;7.10;99.90
64396;DHT22;50717;53.360;6.290;2023-04-06T19:37:16;7.30;99.90
64396;DHT22;50717;53.360;6.290;2023-04-06T19:39:42;7.90;99.90
64396;DHT22;50717;53.360;6.290;2023-04-06T19:42:09;7.40;99.90
64396;DHT22;50717;53.360;6.290;2023-04-06T19:44:35;7.40;99.90
64396;DHT22;50717;53.360;6.290;2023-04-06T19:47:01;7.40;99.90
64396;DHT22;50717;53.360;6.290;2023-04-06T19:49:27;7.30;99.90
64396;DHT22;50717;53.360;6.290;2023-04-06T19:51:54;7.40;99.90